UIP weather

Quimper-Cornouaille Airport
Quimper/Pluguffan, Brittany, France

Public forecast

Using degrees Celsius for public forecast. Weather courtesy of forecast.io.

METAR (pilot weather report)

Retrieved 2019/07/15 17:30 UTC (10 minutes ago):

LFRQ 151730Z AUTO 26008KT CAVOK 23/13 Q1019 NOSIG

TAF (pilot weather forecast)

Retrieved 2019/07/15 12:49 UTC (5 hours ago):

TAF LFRQ 151100Z 1512/1612 VRB05KT CAVOK